createdAt,value
2022-08-29T00:01:11.057Z,8.27
2022-08-29T00:03:38.602Z,7.82
2022-08-29T00:06:17.678Z,8.20
2022-08-29T00:08:44.622Z,8.35
2022-08-29T00:11:11.587Z,9.65
2022-08-29T00:13:41.786Z,9.35
2022-08-29T00:16:08.941Z,10.43
2022-08-29T00:18:37.040Z,9.82
2022-08-29T00:21:04.803Z,10.27
2022-08-29T00:23:31.731Z,9.73
2022-08-29T00:26:01.089Z,10.88
2022-08-29T00:28:27.941Z,11.75
2022-08-29T00:30:57.446Z,9.88
2022-08-29T00:33:24.278Z,10.30
2022-08-29T00:35:51.180Z,9.25
2022-08-29T00:38:19.177Z,10.50
2022-08-29T00:40:57.222Z,9.90
2022-08-29T00:43:31.707Z,10.20
2022-08-29T00:46:13.316Z,9.65
2022-08-29T00:48:42.286Z,10.95
2022-08-29T00:51:15.191Z,11.23
2022-08-29T00:53:46.299Z,10.10
2022-08-29T00:56:16.830Z,10.20
2022-08-29T00:58:59.284Z,10.23
2022-08-29T01:01:26.660Z,11.10
2022-08-29T01:03:54.507Z,10.23
2022-08-29T01:06:22.497Z,10.48
2022-08-29T01:08:57.303Z,9.25
2022-08-29T01:11:46.472Z,9.90
2022-08-29T01:14:14.463Z,9.65
2022-08-29T01:16:42.259Z,8.88
2022-08-29T01:19:28.714Z,9.18
2022-08-29T01:22:36.773Z,10.20
2022-08-29T01:25:08.218Z,9.82
2022-08-29T01:27:38.725Z,7.95
2022-08-29T01:30:07.813Z,8.60
2022-08-29T01:32:34.759Z,7.97
2022-08-29T01:35:01.992Z,8.73
2022-08-29T01:37:31.603Z,8.88
2022-08-29T01:39:58.701Z,8.25
2022-08-29T01:42:25.599Z,7.78
2022-08-29T01:44:58.048Z,8.02
2022-08-29T01:47:29.406Z,7.63
2022-08-29T01:49:56.454Z,7.43
2022-08-29T01:52:23.824Z,7.47
2022-08-29T01:54:50.965Z,8.18
2022-08-29T01:57:19.193Z,7.28
2022-08-29T01:59:46.836Z,7.65
2022-08-29T02:02:27.383Z,7.38
2022-08-29T02:04:58.779Z,8.93
2022-08-29T02:07:26.305Z,7.55
2022-08-29T02:09:53.296Z,7.50
2022-08-29T02:12:20.816Z,7.57
2022-08-29T02:14:48.366Z,7.63
2022-08-29T02:17:15.312Z,7.47
2022-08-29T02:19:42.574Z,7.43
2022-08-29T02:22:10.549Z,7.30
2022-08-29T02:24:37.962Z,7.30
2022-08-29T02:27:05.320Z,8.23
2022-08-29T02:29:37.744Z,7.57
2022-08-29T02:32:13.540Z,8.35
2022-08-29T02:34:44.577Z,7.43
2022-08-29T02:37:14.443Z,7.30
2022-08-29T02:39:41.352Z,7.68
2022-08-29T02:42:08.365Z,6.97
2022-08-29T02:44:35.226Z,6.35
2022-08-29T02:47:02.191Z,6.13
2022-08-29T02:49:29.185Z,6.38
2022-08-29T02:51:57.303Z,6.63
2022-08-29T02:54:24.230Z,6.72
2022-08-29T02:56:51.173Z,5.93
2022-08-29T02:59:18.062Z,7.47
2022-08-29T03:01:45.001Z,6.15
2022-08-29T03:04:11.871Z,5.38
2022-08-29T03:06:38.836Z,6.13
2022-08-29T03:09:05.717Z,7.35
2022-08-29T03:11:32.610Z,5.78
2022-08-29T03:13:59.465Z,5.85
2022-08-29T03:16:27.093Z,5.75
2022-08-29T03:18:55.059Z,5.75
2022-08-29T03:21:25.431Z,5.63
2022-08-29T03:23:53.403Z,5.53
2022-08-29T03:26:20.733Z,5.80
2022-08-29T03:28:48.351Z,5.90
2022-08-29T03:31:15.368Z,5.38
2022-08-29T03:33:42.519Z,5.50
2022-08-29T03:36:13.662Z,5.97
2022-08-29T03:38:46.577Z,6.00
2022-08-29T03:41:24.482Z,5.65
2022-08-29T03:43:51.967Z,5.90
2022-08-29T03:46:18.996Z,5.55
2022-08-29T03:48:45.975Z,5.80
2022-08-29T03:51:12.947Z,5.93
2022-08-29T03:53:40.887Z,4.88
2022-08-29T03:56:08.850Z,5.50
2022-08-29T03:58:38.275Z,5.20
2022-08-29T04:01:06.332Z,5.65
2022-08-29T04:03:33.301Z,5.45
2022-08-29T04:06:00.211Z,6.28
2022-08-29T04:08:27.196Z,5.28
2022-08-29T04:10:54.064Z,5.28
2022-08-29T04:13:21.090Z,5.53
2022-08-29T04:15:48.015Z,5.07
2022-08-29T04:18:15.671Z,6.15
2022-08-29T04:20:48.624Z,6.30
2022-08-29T04:23:15.630Z,5.53
2022-08-29T04:25:43.764Z,6.57
2022-08-29T04:28:13.217Z,5.95
2022-08-29T04:30:49.927Z,6.72
2022-08-29T04:33:22.486Z,6.53
2022-08-29T04:35:50.561Z,6.53
2022-08-29T04:38:17.544Z,7.03
2022-08-29T04:40:44.954Z,7.45
2022-08-29T04:43:12.407Z,7.13
2022-08-29T04:45:42.644Z,6.85
2022-08-29T04:48:10.884Z,6.40
2022-08-29T04:50:38.233Z,7.00
2022-08-29T04:53:05.096Z,7.00
2022-08-29T04:55:32.109Z,7.03
2022-08-29T04:57:59.145Z,7.47
2022-08-29T05:00:28.460Z,7.28
2022-08-29T05:02:57.292Z,7.40
2022-08-29T05:05:24.310Z,7.30
2022-08-29T05:07:51.241Z,6.80
2022-08-29T05:10:20.531Z,6.90
2022-08-29T05:12:48.250Z,6.55
2022-08-29T05:15:16.058Z,7.35
2022-08-29T05:17:43.813Z,6.10
2022-08-29T05:20:11.734Z,6.60
2022-08-29T05:22:39.402Z,6.20
2022-08-29T05:25:06.906Z,5.53
2022-08-29T05:27:34.117Z,5.97
2022-08-29T05:30:01.606Z,6.10
2022-08-29T05:32:28.533Z,6.35
2022-08-29T05:34:56.102Z,5.15
2022-08-29T05:37:23.929Z,5.10
2022-08-29T05:39:51.439Z,4.90
2022-08-29T05:42:21.080Z,5.82
2022-08-29T05:44:48.333Z,6.00
2022-08-29T05:47:17.506Z,5.38
2022-08-29T05:49:45.387Z,5.18
2022-08-29T05:52:14.907Z,5.78
2022-08-29T05:54:44.027Z,5.20
2022-08-29T05:57:18.743Z,4.85
2022-08-29T05:59:47.529Z,5.05
2022-08-29T06:02:14.652Z,6.38
2022-08-29T06:04:41.915Z,4.85
2022-08-29T06:07:09.496Z,4.70
2022-08-29T06:09:38.759Z,4.90
2022-08-29T06:12:07.006Z,4.65
2022-08-29T06:14:33.996Z,4.88
2022-08-29T06:17:01.534Z,4.80
2022-08-29T06:19:31.386Z,4.18
2022-08-29T06:21:58.371Z,3.38
2022-08-29T06:24:25.238Z,3.85
2022-08-29T06:26:52.091Z,3.78
2022-08-29T06:29:18.971Z,3.35
2022-08-29T06:31:45.887Z,3.35
2022-08-29T06:34:12.825Z,2.95
2022-08-29T06:36:40.018Z,2.90
2022-08-29T06:39:09.603Z,3.17
2022-08-29T06:41:38.537Z,2.58
2022-08-29T06:44:05.497Z,2.65
2022-08-29T06:46:35.321Z,2.53
2022-08-29T06:49:04.535Z,2.15
2022-08-29T06:51:33.332Z,2.60
2022-08-29T06:54:02.229Z,2.30
2022-08-29T06:56:29.807Z,2.72
2022-08-29T06:58:56.910Z,2.20
2022-08-29T07:01:24.248Z,2.20
2022-08-29T07:03:53.877Z,2.25
2022-08-29T07:06:21.169Z,3.08
2022-08-29T07:08:56.038Z,2.40
2022-08-29T07:11:25.015Z,1.90
2022-08-29T07:13:52.065Z,2.17
2022-08-29T07:16:19.399Z,1.90
2022-08-29T07:18:46.913Z,2.00
2022-08-29T07:21:20.741Z,2.20
2022-08-29T07:23:49.086Z,2.10
2022-08-29T07:26:29.588Z,2.22
2022-08-29T07:29:00.541Z,1.83
2022-08-29T07:31:30.826Z,1.88
2022-08-29T07:34:02.367Z,1.85
2022-08-29T07:36:31.135Z,1.80
2022-08-29T07:38:58.034Z,2.08
2022-08-29T07:41:25.560Z,2.05
2022-08-29T07:43:52.440Z,1.88
2022-08-29T07:46:21.032Z,1.50
2022-08-29T07:48:48.644Z,1.50
2022-08-29T07:51:21.626Z,1.88
2022-08-29T07:53:48.806Z,2.08
2022-08-29T07:56:25.491Z,2.10
2022-08-29T07:58:53.076Z,1.70
2022-08-29T08:01:20.861Z,1.40
2022-08-29T08:03:50.874Z,1.42
2022-08-29T08:06:19.694Z,1.50
2022-08-29T08:08:47.136Z,1.50
2022-08-29T08:11:14.374Z,1.55
2022-08-29T08:13:41.349Z,1.70
2022-08-29T08:16:15.147Z,1.48
2022-08-29T08:18:43.910Z,1.50
2022-08-29T08:21:12.146Z,1.63
2022-08-29T08:23:39.976Z,1.65
2022-08-29T08:26:08.345Z,1.30
2022-08-29T08:28:35.353Z,1.13
2022-08-29T08:31:07.646Z,1.38
2022-08-29T08:33:35.985Z,1.38
2022-08-29T08:36:06.247Z,1.40
2022-08-29T08:38:33.269Z,1.30
2022-08-29T08:41:16.951Z,1.30
2022-08-29T08:43:54.105Z,1.33
2022-08-29T08:46:47.581Z,1.50
2022-08-29T08:49:23.425Z,1.40
2022-08-29T08:51:57.082Z,1.38
2022-08-29T08:54:32.218Z,1.45
2022-08-29T08:57:08.792Z,1.30
2022-08-29T08:59:49.085Z,1.40
2022-08-29T09:02:42.639Z,1.10
2022-08-29T09:05:30.606Z,1.30
2022-08-29T09:08:22.501Z,1.10
2022-08-29T09:10:49.330Z,1.13
2022-08-29T09:13:36.550Z,1.20
2022-08-29T09:16:12.998Z,1.13
2022-08-29T09:18:49.917Z,1.20
2022-08-29T09:21:40.617Z,1.20
2022-08-29T09:24:33.999Z,1.15
2022-08-29T09:27:00.879Z,1.30
2022-08-29T09:29:30.670Z,1.13
2022-08-29T09:32:11.521Z,1.30
2022-08-29T09:37:35.124Z,1.40
2022-08-29T09:40:12.655Z,1.20
2022-08-29T09:42:59.762Z,1.20
2022-08-29T09:45:27.624Z,1.15
2022-08-29T09:48:17.631Z,1.27
2022-08-29T09:50:45.077Z,1.30
2022-08-29T09:53:14.464Z,1.00
2022-08-29T09:55:53.010Z,1.30
2022-08-29T09:58:20.107Z,1.20
2022-08-29T10:01:06.583Z,1.20
2022-08-29T10:03:41.205Z,1.60
2022-08-29T10:06:17.489Z,1.10
2022-08-29T10:09:15.957Z,1.40
2022-08-29T10:12:03.724Z,1.48
2022-08-29T10:14:50.293Z,1.40
2022-08-29T10:17:48.041Z,1.27
2022-08-29T10:20:15.243Z,1.42
2022-08-29T10:22:56.831Z,1.23
2022-08-29T10:25:35.684Z,1.10
2022-08-29T10:28:26.944Z,1.13
2022-08-29T10:31:13.086Z,1.27
2022-08-29T10:33:57.330Z,1.15
2022-08-29T10:36:36.840Z,1.50
2022-08-29T10:39:25.320Z,1.70
2022-08-29T10:42:05.308Z,1.60
2022-08-29T10:45:26.247Z,1.30
2022-08-29T10:48:06.992Z,1.40
2022-08-29T10:50:50.328Z,1.58
2022-08-29T10:53:37.431Z,1.77
2022-08-29T10:56:15.083Z,1.30
2022-08-29T10:59:05.797Z,1.40
2022-08-29T11:01:51.186Z,1.50
2022-08-29T11:04:23.919Z,1.50
2022-08-29T11:07:25.831Z,1.85
2022-08-29T11:09:59.375Z,1.50
2022-08-29T11:12:33.449Z,1.73
2022-08-29T11:15:05.138Z,1.88
2022-08-29T11:17:37.362Z,1.40
2022-08-29T11:20:11.790Z,1.17
2022-08-29T11:22:47.910Z,1.58
2022-08-29T11:25:17.680Z,1.50
2022-08-29T11:28:06.144Z,1.60
2022-08-29T11:30:43.778Z,1.30
2022-08-29T11:33:39.737Z,1.10
2022-08-29T11:36:45.939Z,1.17
2022-08-29T11:39:33.360Z,1.40
2022-08-29T11:42:06.285Z,1.10
2022-08-29T11:44:55.310Z,1.20
2022-08-29T11:47:41.518Z,1.20
2022-08-29T11:50:23.141Z,1.20
2022-08-29T11:53:22.580Z,1.20
2022-08-29T11:56:14.203Z,1.10
2022-08-29T11:58:50.866Z,1.30
2022-08-29T12:01:36.018Z,1.20
2022-08-29T12:04:05.103Z,1.00
2022-08-29T12:06:37.155Z,2.22
2022-08-29T12:09:14.121Z,1.15
2022-08-29T12:11:59.401Z,1.20
2022-08-29T12:14:37.332Z,1.20
2022-08-29T12:17:19.167Z,1.38
2022-08-29T12:19:52.315Z,1.40
2022-08-29T12:25:27.948Z,1.33
2022-08-29T12:28:03.460Z,1.83
2022-08-29T12:30:42.302Z,1.17
2022-08-29T12:33:20.708Z,1.30
2022-08-29T12:36:07.551Z,1.45
2022-08-29T12:38:55.657Z,2.20
2022-08-29T12:41:48.691Z,1.30
2022-08-29T12:44:18.209Z,1.30
2022-08-29T12:46:50.590Z,1.13
2022-08-29T12:49:34.987Z,1.40
2022-08-29T12:54:42.192Z,1.10
2022-08-29T12:57:20.056Z,1.30
2022-08-29T13:02:30.689Z,1.02
2022-08-29T13:04:58.137Z,1.23
2022-08-29T13:07:27.140Z,1.30
2022-08-29T13:09:55.600Z,1.30
2022-08-29T13:12:25.026Z,1.13
2022-08-29T13:15:08.290Z,1.20
2022-08-29T13:17:42.260Z,1.30
2022-08-29T13:23:19.655Z,1.85
2022-08-29T13:26:07.002Z,1.75
2022-08-29T13:28:47.069Z,1.40
2022-08-29T13:31:18.000Z,1.63
2022-08-29T13:33:50.935Z,1.50
2022-08-29T13:36:38.773Z,1.15
2022-08-29T13:39:25.318Z,1.20
2022-08-29T13:41:58.057Z,1.10
2022-08-29T13:44:29.037Z,1.20
2022-08-29T13:47:00.890Z,0.80
2022-08-29T13:49:31.020Z,0.90
2022-08-29T13:51:59.232Z,1.58
2022-08-29T13:54:30.719Z,1.30
2022-08-29T13:57:00.431Z,1.33
2022-08-29T13:59:35.904Z,1.63
2022-08-29T14:04:40.846Z,1.20
2022-08-29T14:07:25.122Z,1.38
2022-08-29T14:09:52.109Z,1.38
2022-08-29T14:12:19.378Z,1.23
2022-08-29T14:14:48.454Z,1.20
2022-08-29T14:17:18.904Z,1.15
2022-08-29T14:19:46.517Z,1.40
2022-08-29T14:22:13.880Z,1.00
2022-08-29T14:24:41.385Z,1.15
2022-08-29T14:27:08.898Z,1.25
2022-08-29T14:29:36.478Z,1.40
2022-08-29T14:32:03.717Z,1.35
2022-08-29T14:34:32.869Z,1.23
2022-08-29T14:37:01.305Z,1.80
2022-08-29T14:39:28.639Z,1.25
2022-08-29T14:41:55.695Z,1.48
2022-08-29T14:44:22.724Z,1.20
2022-08-29T14:46:50.774Z,1.10
2022-08-29T14:49:18.652Z,1.38
2022-08-29T14:51:45.612Z,1.23
2022-08-29T14:54:12.967Z,1.42
2022-08-29T14:56:48.747Z,1.38
2022-08-29T14:59:17.837Z,1.50
2022-08-29T15:01:47.632Z,1.45
2022-08-29T15:04:18.832Z,1.63
2022-08-29T15:06:48.731Z,2.03
2022-08-29T15:09:16.237Z,1.42
2022-08-29T15:11:43.430Z,1.45
2022-08-29T15:14:10.924Z,1.48
2022-08-29T15:16:38.224Z,1.40
2022-08-29T15:19:37.612Z,1.33
2022-08-29T15:21:52.699Z,1.58
2022-08-29T15:24:19.568Z,1.35
2022-08-29T15:26:46.526Z,1.63
2022-08-29T15:29:13.491Z,1.45
2022-08-29T15:31:40.465Z,1.30
2022-08-29T15:34:07.479Z,1.40
2022-08-29T15:36:35.878Z,1.55
2022-08-29T15:39:05.824Z,1.13
2022-08-29T15:41:33.543Z,1.30
2022-08-29T15:44:02.047Z,1.20
2022-08-29T15:46:29.175Z,1.63
2022-08-29T15:48:56.185Z,1.23
2022-08-29T15:51:23.177Z,1.45
2022-08-29T15:53:50.137Z,1.20
2022-08-29T15:56:17.198Z,1.55
2022-08-29T15:58:44.153Z,1.10
2022-08-29T16:01:12.367Z,1.40
2022-08-29T16:03:39.423Z,1.17
2022-08-29T16:06:06.617Z,1.48
2022-08-29T16:08:33.707Z,1.45
2022-08-29T16:11:01.063Z,1.77
2022-08-29T16:13:27.989Z,1.33
2022-08-29T16:15:55.017Z,1.52
2022-08-29T16:18:22.064Z,1.20
2022-08-29T16:20:48.943Z,1.50
2022-08-29T16:23:17.392Z,2.13
2022-08-29T16:25:45.171Z,1.38
2022-08-29T16:28:12.240Z,1.48
2022-08-29T16:30:44.254Z,1.90
2022-08-29T16:33:13.633Z,2.13
2022-08-29T16:35:40.597Z,1.92
2022-08-29T16:38:07.527Z,1.98
2022-08-29T16:40:35.223Z,1.60
2022-08-29T16:43:03.865Z,1.88
2022-08-29T16:45:31.747Z,4.03
2022-08-29T16:47:58.690Z,2.47
2022-08-29T16:50:26.660Z,2.42
2022-08-29T16:52:54.321Z,1.80
2022-08-29T16:55:21.618Z,2.00
2022-08-29T16:58:08.947Z,2.00
2022-08-29T17:00:35.910Z,2.10
2022-08-29T17:03:02.875Z,1.92
2022-08-29T17:05:30.580Z,2.60
2022-08-29T17:07:57.505Z,1.98
2022-08-29T17:10:24.352Z,2.20
2022-08-29T17:12:51.236Z,2.83
2022-08-29T17:15:18.063Z,1.90
2022-08-29T17:17:45.173Z,1.65
2022-08-29T17:20:12.095Z,1.48
2022-08-29T17:22:39.530Z,1.55
2022-08-29T17:25:07.366Z,1.83
2022-08-29T17:27:34.541Z,1.65
2022-08-29T17:30:03.613Z,1.40
2022-08-29T17:32:30.790Z,1.67
2022-08-29T17:34:57.689Z,1.20
2022-08-29T17:37:24.578Z,1.48
2022-08-29T17:39:51.482Z,1.52
2022-08-29T17:42:18.449Z,1.48
2022-08-29T17:44:46.557Z,2.35
2022-08-29T17:47:13.612Z,1.50
2022-08-29T17:49:40.522Z,1.45
2022-08-29T17:52:07.499Z,1.80
2022-08-29T17:54:35.144Z,2.05
2022-08-29T17:57:02.712Z,2.13
2022-08-29T17:59:32.937Z,1.95
2022-08-29T18:02:00.767Z,1.88
2022-08-29T18:04:27.927Z,2.22
2022-08-29T18:06:55.870Z,2.13
2022-08-29T18:09:23.788Z,1.95
2022-08-29T18:11:53.474Z,2.00
2022-08-29T18:14:23.883Z,3.25
2022-08-29T18:16:55.166Z,2.17
2022-08-29T18:19:22.947Z,1.90
2022-08-29T18:21:51.958Z,2.10
2022-08-29T18:24:19.564Z,2.33
2022-08-29T18:26:47.639Z,2.00
2022-08-29T18:29:16.128Z,1.77
2022-08-29T18:31:43.475Z,1.70
2022-08-29T18:34:11.266Z,1.92
2022-08-29T18:36:42.371Z,1.85
2022-08-29T18:39:10.071Z,2.17
2022-08-29T18:41:37.349Z,2.00
2022-08-29T18:44:04.966Z,2.20
2022-08-29T18:46:32.578Z,2.25
2022-08-29T18:48:59.972Z,2.40
2022-08-29T18:51:27.736Z,2.33
2022-08-29T18:53:55.118Z,1.92
2022-08-29T18:56:22.030Z,1.85
2022-08-29T18:58:54.636Z,2.08
2022-08-29T19:01:28.925Z,2.03
2022-08-29T19:04:01.345Z,2.42
2022-08-29T19:06:28.313Z,2.00
2022-08-29T19:08:56.949Z,2.30
2022-08-29T19:11:24.790Z,2.08
2022-08-29T19:13:52.414Z,2.08
2022-08-29T19:16:21.899Z,1.60
2022-08-29T19:18:48.994Z,2.08
2022-08-29T19:21:15.960Z,1.98
2022-08-29T19:23:47.291Z,1.90
2022-08-29T19:26:28.392Z,1.80
2022-08-29T19:29:01.386Z,1.80
2022-08-29T19:31:29.068Z,1.80
2022-08-29T19:33:57.462Z,2.80
2022-08-29T19:36:25.370Z,2.28
2022-08-29T19:38:52.498Z,1.58
2022-08-29T19:41:19.990Z,1.42
2022-08-29T19:43:47.283Z,1.83
2022-08-29T19:46:18.267Z,1.60
2022-08-29T19:48:50.816Z,1.85
2022-08-29T19:51:19.564Z,1.58
2022-08-29T19:53:48.448Z,1.95
2022-08-29T19:56:15.348Z,1.70
2022-08-29T19:58:42.812Z,3.05
2022-08-29T20:01:10.346Z,1.60
2022-08-29T20:03:39.414Z,2.60
2022-08-29T20:06:07.596Z,2.67
2022-08-29T20:08:37.009Z,2.00
2022-08-29T20:11:04.514Z,2.03
2022-08-29T20:13:35.973Z,1.67
2022-08-29T20:16:09.603Z,1.85
2022-08-29T20:18:39.839Z,2.10
2022-08-29T20:21:07.078Z,1.88
2022-08-29T20:23:34.245Z,1.90
2022-08-29T20:26:01.714Z,2.10
2022-08-29T20:28:30.552Z,1.60
2022-08-29T20:30:58.148Z,2.22
2022-08-29T20:33:26.552Z,2.17
2022-08-29T20:36:12.025Z,2.17
2022-08-29T20:38:38.886Z,2.55
2022-08-29T20:41:05.861Z,2.40
2022-08-29T20:43:32.734Z,2.25
2022-08-29T20:46:00.092Z,2.25
2022-08-29T20:48:31.284Z,1.90
2022-08-29T20:51:04.599Z,2.50
2022-08-29T20:53:33.176Z,2.10
2022-08-29T20:56:01.271Z,2.22
2022-08-29T20:58:29.571Z,2.28
2022-08-29T21:00:57.903Z,3.03
2022-08-29T21:03:43.306Z,2.38
2022-08-29T21:06:10.388Z,2.22
2022-08-29T21:08:37.770Z,2.10
2022-08-29T21:11:05.434Z,2.25
2022-08-29T21:13:32.605Z,2.00
2022-08-29T21:15:59.656Z,1.88
2022-08-29T21:18:26.594Z,1.83
2022-08-29T21:20:55.271Z,2.20
2022-08-29T21:23:24.394Z,1.58
2022-08-29T21:25:56.628Z,1.80
2022-08-29T21:28:24.977Z,1.95
2022-08-29T21:30:52.571Z,1.52
2022-08-29T21:33:20.739Z,1.60
2022-08-29T21:35:49.876Z,1.80
2022-08-29T21:38:17.868Z,2.88
2022-08-29T21:40:50.332Z,2.15
2022-08-29T21:43:17.862Z,2.20
2022-08-29T21:45:45.010Z,1.75
2022-08-29T21:48:11.918Z,2.80
2022-08-29T21:50:38.838Z,2.17
2022-08-29T21:53:06.046Z,1.85
2022-08-29T21:55:33.119Z,2.30
2022-08-29T21:58:01.275Z,1.95
2022-08-29T22:00:32.609Z,2.03
2022-08-29T22:03:05.678Z,1.90
2022-08-29T22:05:32.999Z,1.92
2022-08-29T22:08:03.166Z,1.73
2022-08-29T22:10:33.691Z,1.60
2022-08-29T22:13:01.718Z,2.25
2022-08-29T22:15:47.607Z,1.92
2022-08-29T22:18:15.377Z,1.70
2022-08-29T22:20:47.577Z,2.03
2022-08-29T22:23:20.036Z,1.65
2022-08-29T22:25:47.628Z,1.60
2022-08-29T22:28:14.565Z,1.80
2022-08-29T22:30:41.502Z,1.80
2022-08-29T22:33:08.833Z,1.70
2022-08-29T22:35:43.037Z,2.53
2022-08-29T22:38:09.894Z,2.00
2022-08-29T22:40:36.847Z,2.20
2022-08-29T22:43:04.043Z,1.40
2022-08-29T22:45:31.721Z,1.50
2022-08-29T22:47:58.674Z,1.67
2022-08-29T22:50:26.180Z,1.40
2022-08-29T22:52:57.641Z,1.45
2022-08-29T22:57:51.940Z,1.60
2022-08-29T23:00:25.036Z,1.92
2022-08-29T23:02:52.913Z,1.67
2022-08-29T23:05:21.234Z,1.50
2022-08-29T23:07:48.512Z,2.05
2022-08-29T23:10:15.823Z,1.25
2022-08-29T23:12:42.750Z,1.40
2022-08-29T23:15:15.901Z,1.98
2022-08-29T23:17:42.937Z,1.67
2022-08-29T23:20:12.080Z,1.80
2022-08-29T23:22:42.828Z,1.40
2022-08-29T23:25:12.350Z,2.08
2022-08-29T23:27:40.045Z,1.70
2022-08-29T23:30:10.726Z,1.52
2022-08-29T23:32:37.739Z,1.65
2022-08-29T23:35:06.276Z,1.90
2022-08-29T23:37:33.796Z,1.60
2022-08-29T23:40:01.288Z,1.50
2022-08-29T23:42:29.490Z,2.08
2022-08-29T23:44:57.879Z,1.40
2022-08-29T23:47:24.920Z,1.65
2022-08-29T23:49:51.948Z,1.60
2022-08-29T23:52:18.822Z,1.63
2022-08-29T23:54:45.692Z,1.70
2022-08-29T23:57:12.623Z,1.50
2022-08-29T23:59:58.065Z,1.50
